createdAt,value
2023-01-20T14:54:32.811Z,55.19
2023-01-20T14:57:41.043Z,54.85
2023-01-20T15:00:44.265Z,54.47
2023-01-20T15:03:45.923Z,54.26
2023-01-20T15:06:57.207Z,53.95
2023-01-20T15:10:10.286Z,53.83
2023-01-20T15:13:26.850Z,53.61
2023-01-20T15:16:49.473Z,53.50
2023-01-20T15:19:51.560Z,53.18
2023-01-20T15:22:53.424Z,53.29
2023-01-20T15:33:33.420Z,52.69
2023-01-20T15:36:37.148Z,51.53
2023-01-20T15:39:38.799Z,50.75
2023-01-20T15:42:40.861Z,50.64
2023-01-20T15:45:43.241Z,50.26
2023-01-20T15:48:45.892Z,50.23
2023-01-20T15:51:47.539Z,50.09
2023-01-20T15:54:49.167Z,49.98
2023-01-20T15:57:52.366Z,49.95
2023-01-20T16:00:55.586Z,49.95
2023-01-20T16:03:57.582Z,49.87
2023-01-20T16:06:59.306Z,49.68
2023-01-20T16:10:00.845Z,49.98
2023-01-20T16:13:02.561Z,50.07
2023-01-20T16:16:04.950Z,50.32
2023-01-20T16:19:06.837Z,50.66
2023-01-20T16:22:10.460Z,50.81
2023-01-20T16:25:12.145Z,50.80
2023-01-20T16:28:23.732Z,50.92
2023-01-20T16:31:26.617Z,51.24
2023-01-20T16:34:28.340Z,51.54
2023-01-20T16:37:29.873Z,51.78
2023-01-20T16:40:31.508Z,52.17
2023-01-20T16:43:33.388Z,52.47
2023-01-20T16:46:35.602Z,52.73
2023-01-20T16:49:37.257Z,52.97
2023-01-20T16:52:38.949Z,53.28
2023-01-20T16:55:44.163Z,53.63
2023-01-20T16:58:53.686Z,53.75
2023-01-20T17:01:55.456Z,54.06
2023-01-20T17:04:57.077Z,54.26
2023-01-20T17:07:59.175Z,54.50
2023-01-20T17:11:00.686Z,54.66
2023-01-20T17:14:05.486Z,54.96
2023-01-20T17:17:07.041Z,55.12
2023-01-20T17:20:10.275Z,55.41
2023-01-20T17:23:12.001Z,55.62
2023-01-20T17:26:13.689Z,55.69
2023-01-20T17:29:15.370Z,55.92
2023-01-20T17:32:18.239Z,56.19
2023-01-20T17:35:19.808Z,56.37
2023-01-20T17:38:22.280Z,56.37
2023-01-20T17:41:23.996Z,56.55
2023-01-20T17:44:25.699Z,56.75
2023-01-20T17:47:29.363Z,57.05
2023-01-20T17:50:32.237Z,57.12
2023-01-20T17:53:34.951Z,57.34
2023-01-20T17:56:36.561Z,57.48
2023-01-20T17:59:38.382Z,57.65
2023-01-20T18:02:40.028Z,57.69
2023-01-20T18:05:41.711Z,57.92
2023-01-20T18:08:43.877Z,58.05
2023-01-20T18:11:45.544Z,58.33
2023-01-20T18:14:47.366Z,58.46
2023-01-20T18:17:48.887Z,58.77
2023-01-20T18:20:51.182Z,59.25
2023-01-20T18:23:52.992Z,59.43
2023-01-20T18:26:56.214Z,59.48
2023-01-20T18:29:59.250Z,59.63
2023-01-20T18:33:00.813Z,59.62
2023-01-20T18:36:02.942Z,59.64
2023-01-20T18:39:13.240Z,59.80
2023-01-20T18:42:14.865Z,59.96
2023-01-20T18:45:16.635Z,59.89
2023-01-20T18:48:18.709Z,60.07
2023-01-20T18:51:22.406Z,59.94
2023-01-20T18:54:25.943Z,60.18
2023-01-20T18:57:27.599Z,60.24
2023-01-20T19:00:30.387Z,60.34
2023-01-20T19:03:33.995Z,60.41
2023-01-20T19:06:38.599Z,60.29
2023-01-20T19:09:40.281Z,60.44
2023-01-20T19:12:42.129Z,60.44
2023-01-20T19:15:43.825Z,60.68
2023-01-20T19:18:50.891Z,60.99
2023-01-20T19:21:52.956Z,61.45
2023-01-20T19:24:54.495Z,61.48
2023-01-20T19:27:56.071Z,61.74
2023-01-20T19:31:12.213Z,61.79
2023-01-20T19:34:14.035Z,61.98
2023-01-20T19:37:15.696Z,61.98
2023-01-20T19:40:17.663Z,61.90
2023-01-20T19:43:19.633Z,62.00
2023-01-20T19:46:24.829Z,62.01
2023-01-20T19:49:26.344Z,62.17
2023-01-20T19:52:30.753Z,62.09
2023-01-20T19:55:32.416Z,62.28
2023-01-20T19:58:34.244Z,62.15
2023-01-20T20:01:37.046Z,62.23
2023-01-20T20:04:38.824Z,62.29
2023-01-20T20:07:40.419Z,62.33
2023-01-20T20:10:42.800Z,62.45
2023-01-20T20:13:44.649Z,62.49
2023-01-20T20:16:46.648Z,62.30
2023-01-20T20:19:48.203Z,62.43
2023-01-20T20:22:49.803Z,62.54
2023-01-20T20:25:56.361Z,62.46
2023-01-20T20:28:59.853Z,62.57
2023-01-20T20:32:01.767Z,62.83
2023-01-20T20:35:04.020Z,62.98
2023-01-20T20:38:05.582Z,63.09
2023-01-20T20:41:08.770Z,63.47
2023-01-20T20:44:12.945Z,63.29
2023-01-20T20:47:14.555Z,63.34
2023-01-20T20:50:17.155Z,63.34
2023-01-20T20:53:19.922Z,63.20
2023-01-20T20:56:22.504Z,63.18
2023-01-20T20:59:24.890Z,63.14
2023-01-20T21:02:26.810Z,63.16
2023-01-20T21:05:28.589Z,63.13
2023-01-20T21:08:30.632Z,63.18
2023-01-20T21:11:32.462Z,63.01
2023-01-20T21:14:34.092Z,63.04
2023-01-20T21:17:35.680Z,63.17
2023-01-20T21:20:37.270Z,63.14
2023-01-20T21:23:41.120Z,63.22
2023-01-20T21:26:43.221Z,63.18
2023-01-20T21:29:46.444Z,63.17
2023-01-20T21:32:48.063Z,63.26
2023-01-20T21:35:49.810Z,63.42
2023-01-20T21:38:51.970Z,63.19
2023-01-20T21:41:53.641Z,63.36
2023-01-20T21:44:55.290Z,63.40
2023-01-20T21:48:16.923Z,63.33
2023-01-20T21:51:37.731Z,63.52
2023-01-20T21:54:41.079Z,63.57
2023-01-20T21:57:43.254Z,63.83
2023-01-20T22:00:45.411Z,63.99
2023-01-20T22:03:47.023Z,64.46
2023-01-20T22:06:48.590Z,64.51
2023-01-20T22:09:50.565Z,64.63
2023-01-20T22:12:52.320Z,64.66
2023-01-20T22:15:53.862Z,64.72
2023-01-20T22:18:55.531Z,64.62
2023-01-20T22:21:57.455Z,64.70
2023-01-20T22:24:59.062Z,64.83
2023-01-20T22:28:00.723Z,64.82
2023-01-20T22:31:11.673Z,64.81
2023-01-20T22:34:13.669Z,64.93
2023-01-20T22:37:15.315Z,64.87
2023-01-20T22:40:17.364Z,65.10
2023-01-20T22:43:20.273Z,65.00
2023-01-20T22:46:23.783Z,64.99
2023-01-20T22:49:25.411Z,65.18
2023-01-20T22:52:27.067Z,65.53
2023-01-20T22:55:28.959Z,65.82
2023-01-20T22:58:31.355Z,65.88
2023-01-20T23:01:35.160Z,65.87
2023-01-20T23:04:36.854Z,65.93
2023-01-20T23:07:38.671Z,66.02
2023-01-20T23:10:46.271Z,66.07
2023-01-20T23:13:48.428Z,66.09
2023-01-20T23:16:50.121Z,66.05
2023-01-20T23:19:51.760Z,66.18
2023-01-20T23:22:53.284Z,66.17
2023-01-20T23:26:10.703Z,66.19
2023-01-20T23:29:12.230Z,66.29
2023-01-20T23:32:13.789Z,66.31
2023-01-20T23:35:25.414Z,66.67
2023-01-20T23:38:27.112Z,66.91
2023-01-20T23:41:28.723Z,66.88
2023-01-20T23:44:30.329Z,66.96
2023-01-20T23:47:31.902Z,66.89
2023-01-20T23:50:34.057Z,66.85
2023-01-20T23:53:40.415Z,66.65
2023-01-20T23:56:42.082Z,66.80
2023-01-20T23:59:44.643Z,66.75
